createdAt,value
2022-09-22T00:01:09.412Z,94620.91
2022-09-22T00:03:38.220Z,94620.91
2022-09-22T00:06:06.897Z,94620.91
2022-09-22T00:08:35.429Z,94617.38
2022-09-22T00:11:04.344Z,94612.22
2022-09-22T00:13:32.681Z,94620.34
2022-09-22T00:16:01.417Z,94615.75
2022-09-22T00:18:30.361Z,94621.97
2022-09-22T00:20:57.929Z,94609.50
2022-09-22T00:23:26.125Z,94618.47
2022-09-22T00:25:53.725Z,94611.38
2022-09-22T00:28:21.786Z,94611.38
2022-09-22T00:30:49.374Z,94610.56
2022-09-22T00:33:16.971Z,94608.94
2022-09-22T00:35:45.881Z,94603.53
2022-09-22T00:38:13.568Z,94603.53
2022-09-22T00:40:41.146Z,94594.56
2022-09-22T00:43:14.067Z,94587.28
2022-09-22T00:45:41.588Z,94585.66
2022-09-22T00:48:09.143Z,94587.28
2022-09-22T00:50:36.988Z,94580.25
2022-09-22T00:53:07.086Z,94578.34
2022-09-22T00:55:38.555Z,94567.78
2022-09-22T00:58:07.850Z,94568.59
2022-09-22T01:00:35.448Z,94570.47
2022-09-22T01:03:03.263Z,94575.06
2022-09-22T01:05:30.797Z,94570.47
2022-09-22T01:07:58.363Z,94560.72
2022-09-22T01:10:27.478Z,94558.03
2022-09-22T01:12:58.676Z,94552.63
2022-09-22T01:15:29.080Z,94552.84
2022-09-22T01:18:08.200Z,94547.44
2022-09-22T01:21:02.910Z,94550.97
2022-09-22T01:24:07.215Z,94545.56
2022-09-22T01:26:53.893Z,94541.19
2022-09-22T01:29:37.711Z,94546.59
2022-09-22T01:32:08.444Z,94537.69
2022-09-22T01:34:37.808Z,94537.69
2022-09-22T01:37:10.037Z,94538.47
2022-09-22T01:39:40.028Z,94538.75
2022-09-22T01:42:10.773Z,94536.03
2022-09-22T01:44:40.123Z,94538.75
2022-09-22T01:47:11.699Z,94536.84
2022-09-22T01:49:40.389Z,94528.72
2022-09-22T01:52:10.663Z,94546.03
2022-09-22T01:54:40.127Z,94557.94
2022-09-22T01:57:12.205Z,94553.34
2022-09-22T01:59:39.961Z,94547.09
2022-09-22T02:02:12.855Z,94548.75
2022-09-22T02:04:41.276Z,94554.44
2022-09-22T02:07:10.862Z,94548.19
2022-09-22T02:09:38.489Z,94548.19
2022-09-22T02:12:06.198Z,94553.59
2022-09-22T02:14:33.780Z,94545.47
2022-09-22T02:17:01.542Z,94538.44
2022-09-22T02:19:31.930Z,94546.53
2022-09-22T02:21:59.460Z,94544.66
2022-09-22T02:24:28.976Z,94535.72
2022-09-22T02:26:57.160Z,94538.44
2022-09-22T02:29:24.677Z,94537.63
2022-09-22T02:31:52.241Z,94543.03
2022-09-22T02:34:19.818Z,94539.50
2022-09-22T02:36:52.271Z,94541.13
2022-09-22T02:39:21.168Z,94538.66
2022-09-22T02:41:57.525Z,94542.44
2022-09-22T02:44:26.295Z,94540.81
2022-09-22T02:46:56.260Z,94538.09
2022-09-22T02:49:23.880Z,94544.34
2022-09-22T02:51:53.124Z,94540.00
2022-09-22T02:54:20.667Z,94542.72
2022-09-22T02:56:48.264Z,94546.22
2022-09-22T02:59:15.791Z,94543.50
2022-09-22T03:01:43.352Z,94548.13
2022-09-22T03:04:10.903Z,94548.13
2022-09-22T03:06:38.578Z,94549.19
2022-09-22T03:09:07.675Z,94538.38
2022-09-22T03:11:35.292Z,94540.00
2022-09-22T03:14:02.891Z,94535.66
2022-09-22T03:16:30.530Z,94537.53
2022-09-22T03:18:58.421Z,94533.19
2022-09-22T03:21:25.977Z,94540.25
2022-09-22T03:23:53.544Z,94534.25
2022-09-22T03:26:22.438Z,94539.69
2022-09-22T03:28:49.999Z,94541.53
2022-09-22T03:31:17.628Z,94545.09
2022-09-22T03:33:48.227Z,94546.16
2022-09-22T03:36:19.476Z,94538.03
2022-09-22T03:38:47.020Z,94536.97
2022-09-22T03:41:14.585Z,94531.56
2022-09-22T03:43:43.486Z,94535.34
2022-09-22T03:46:11.073Z,94534.50
2022-09-22T03:48:42.863Z,94532.63
2022-09-22T03:51:12.446Z,94530.16
2022-09-22T03:53:40.160Z,94528.28
2022-09-22T03:56:08.608Z,94529.09
2022-09-22T03:58:36.231Z,94534.50
2022-09-22T04:01:05.623Z,94533.69
2022-09-22T04:03:33.872Z,94531.00
2022-09-22T04:06:01.509Z,94536.41
2022-09-22T04:08:29.080Z,94537.47
2022-09-22T04:10:57.526Z,94539.09
2022-09-22T04:13:25.234Z,94536.41
2022-09-22T04:15:52.770Z,94538.28
2022-09-22T04:18:22.244Z,94532.06
2022-09-22T04:20:49.768Z,94539.91
2022-09-22T04:23:17.386Z,94548.84
2022-09-22T04:25:44.963Z,94545.09
2022-09-22T04:28:12.501Z,94544.25
2022-09-22T04:30:40.198Z,94546.97
2022-09-22T04:33:07.770Z,94542.63
2022-09-22T04:35:36.630Z,94545.31
2022-09-22T04:38:04.493Z,94548.63
2022-09-22T04:40:32.133Z,94540.75
2022-09-22T04:42:59.704Z,94542.63
2022-09-22T04:45:27.246Z,94544.53
2022-09-22T04:47:54.768Z,94535.56
2022-09-22T04:50:23.102Z,94543.69
2022-09-22T04:52:52.721Z,94555.34
2022-09-22T04:55:20.959Z,94560.75
2022-09-22T04:57:49.134Z,94561.00
2022-09-22T05:00:16.937Z,94562.63
2022-09-22T05:02:44.611Z,94557.47
2022-09-22T05:05:12.858Z,94564.75
2022-09-22T05:07:41.675Z,94562.06
2022-09-22T05:10:11.384Z,94563.13
2022-09-22T05:12:40.493Z,94561.25
2022-09-22T05:15:08.920Z,94568.78
2022-09-22T05:17:36.895Z,94567.97
2022-09-22T05:20:05.056Z,94562.56
2022-09-22T05:22:36.371Z,94557.16
2022-09-22T05:25:08.146Z,94562.56
2022-09-22T05:27:37.388Z,94567.97
2022-09-22T05:30:05.527Z,94560.94
2022-09-22T05:32:33.052Z,94560.94
2022-09-22T05:35:00.609Z,94563.63
2022-09-22T05:37:28.161Z,94574.44
2022-09-22T05:39:55.711Z,94570.91
2022-09-22T05:42:23.770Z,94570.06
2022-09-22T05:44:52.645Z,94568.22
2022-09-22T05:47:20.478Z,94570.06
2022-09-22T05:49:48.054Z,94567.38
2022-09-22T05:52:15.581Z,94564.66
2022-09-22T05:54:43.174Z,94565.75
2022-09-22T05:57:10.794Z,94565.75
2022-09-22T05:59:38.308Z,94568.44
2022-09-22T06:02:23.727Z,94567.59
2022-09-22T06:04:53.456Z,94564.09
2022-09-22T06:07:21.396Z,94566.81
2022-09-22T06:09:48.993Z,94565.16
2022-09-22T06:12:16.544Z,94572.22
2022-09-22T06:14:44.076Z,94577.63
2022-09-22T06:17:13.123Z,94576.56
2022-09-22T06:19:40.721Z,94574.94
2022-09-22T06:22:08.696Z,94579.25
2022-09-22T06:24:36.243Z,94577.63
2022-09-22T06:27:03.789Z,94574.94
2022-09-22T06:29:31.468Z,94576.00
2022-09-22T06:31:59.217Z,94577.63
2022-09-22T06:34:28.193Z,94570.59
2022-09-22T06:36:56.066Z,94564.34
2022-09-22T06:39:23.879Z,94565.16
2022-09-22T06:41:51.398Z,94567.88
2022-09-22T06:44:19.040Z,94572.44
2022-09-22T06:46:46.689Z,94577.88
2022-09-22T06:49:14.272Z,94572.44
2022-09-22T06:51:43.289Z,94572.44
2022-09-22T06:54:10.872Z,94565.41
2022-09-22T06:56:39.796Z,94567.28
2022-09-22T06:59:12.148Z,94568.94
2022-09-22T07:01:39.932Z,94567.28
2022-09-22T07:04:07.583Z,94568.94
2022-09-22T07:06:35.761Z,94568.94
2022-09-22T07:09:05.356Z,94560.00
2022-09-22T07:11:37.464Z,94558.13
2022-09-22T07:14:08.255Z,94564.56
2022-09-22T07:16:36.362Z,94561.63
2022-09-22T07:19:04.720Z,94562.47
2022-09-22T07:21:35.131Z,94562.47
2022-09-22T07:24:04.942Z,94554.59
2022-09-22T07:26:33.465Z,94565.16
2022-09-22T07:29:01.808Z,94565.16
2022-09-22T07:31:30.398Z,94560.56
2022-09-22T07:34:00.160Z,94561.41
2022-09-22T07:36:28.610Z,94561.41
2022-09-22T07:38:57.407Z,94554.09
2022-09-22T07:41:27.453Z,94563.03
2022-09-22T07:43:56.097Z,94563.84
2022-09-22T07:46:23.729Z,94568.44
2022-09-22T07:48:51.432Z,94565.75
2022-09-22T07:51:20.561Z,94564.66
2022-09-22T07:53:49.012Z,94567.38
2022-09-22T07:56:17.464Z,94561.13
2022-09-22T07:58:49.881Z,94564.66
2022-09-22T08:01:17.849Z,94564.66
2022-09-22T08:03:46.224Z,94553.84
2022-09-22T08:06:14.493Z,94559.25
2022-09-22T08:08:43.319Z,94563.84
2022-09-22T08:11:13.126Z,94554.91
2022-09-22T08:13:40.766Z,94564.66
2022-09-22T08:16:10.317Z,94556.56
2022-09-22T08:18:39.589Z,94558.44
2022-09-22T08:21:07.811Z,94551.13
2022-09-22T08:23:35.386Z,94561.97
2022-09-22T08:26:06.512Z,94557.38
2022-09-22T08:28:34.096Z,94556.56
2022-09-22T08:31:01.782Z,94558.44
2022-09-22T08:33:31.976Z,94553.00
2022-09-22T08:36:03.620Z,94560.94
2022-09-22T08:38:31.433Z,94553.00
2022-09-22T08:41:07.340Z,94551.13
2022-09-22T08:43:34.952Z,94560.31
2022-09-22T08:46:02.528Z,94556.78
2022-09-22T08:48:49.103Z,94552.22
2022-09-22T08:51:37.120Z,94558.44
2022-09-22T08:54:05.214Z,94546.81
2022-09-22T08:56:36.752Z,94551.38
2022-09-22T08:59:08.643Z,94553.00
2022-09-22T09:01:43.846Z,94551.38
2022-09-22T09:04:45.225Z,94554.91
2022-09-22T09:07:16.261Z,94553.84
2022-09-22T09:09:50.208Z,94553.00
2022-09-22T09:12:29.427Z,94558.44
2022-09-22T09:15:16.031Z,94559.25
2022-09-22T09:17:43.735Z,94553.84
2022-09-22T09:20:17.646Z,94560.94
2022-09-22T09:22:48.578Z,94556.56
2022-09-22T09:25:27.644Z,94545.72
2022-09-22T09:27:57.046Z,94547.59
2022-09-22T09:30:24.567Z,94548.19
2022-09-22T09:32:52.965Z,94543.84
2022-09-22T09:35:26.486Z,94550.09
2022-09-22T09:37:54.997Z,94547.97
2022-09-22T09:40:22.606Z,94545.25
2022-09-22T09:42:54.652Z,94549.59
2022-09-22T09:45:24.368Z,94545.03
2022-09-22T09:48:10.836Z,94542.06
2022-09-22T09:50:39.720Z,94545.09
2022-09-22T09:53:08.659Z,94549.19
2022-09-22T09:55:36.396Z,94540.81
2022-09-22T09:58:06.215Z,94537.84
2022-09-22T10:00:33.536Z,94535.16
2022-09-22T10:03:06.440Z,94537.84
2022-09-22T10:05:37.162Z,94535.97
2022-09-22T10:08:18.430Z,94530.31
2022-09-22T10:10:45.977Z,94531.13
2022-09-22T10:13:34.738Z,94531.13
2022-09-22T10:16:30.690Z,94519.47
2022-09-22T10:19:22.314Z,94520.31
2022-09-22T10:21:50.101Z,94514.06
2022-09-22T10:24:30.446Z,94510.56
2022-09-22T10:26:58.883Z,94510.56
2022-09-22T10:29:27.876Z,94514.91
2022-09-22T10:32:07.428Z,94514.91
2022-09-22T10:34:36.381Z,94507.59
2022-09-22T10:37:05.455Z,94513.00
2022-09-22T10:39:37.977Z,94512.19
2022-09-22T10:42:08.577Z,94507.59
2022-09-22T10:44:41.855Z,94507.59
2022-09-22T10:47:26.147Z,94513.84
2022-09-22T10:50:07.287Z,94514.41
2022-09-22T10:52:37.496Z,94513.56
2022-09-22T10:55:13.849Z,94520.88
2022-09-22T10:57:59.574Z,94514.41
2022-09-22T11:00:27.334Z,94515.47
2022-09-22T11:03:30.323Z,94504.66
2022-09-22T11:06:23.513Z,94520.88
2022-09-22T11:09:12.872Z,94510.84
2022-09-22T11:12:01.744Z,94507.09
2022-09-22T11:14:35.203Z,94503.56
2022-09-22T11:17:08.504Z,94507.09
2022-09-22T11:19:57.219Z,94506.28
2022-09-22T11:22:35.372Z,94497.09
2022-09-22T11:25:08.533Z,94503.31
2022-09-22T11:27:45.242Z,94507.91
2022-09-22T11:30:18.184Z,94496.25
2022-09-22T11:33:03.269Z,94494.38
2022-09-22T11:35:46.943Z,94490.59
2022-09-22T11:38:22.275Z,94487.91
2022-09-22T11:41:00.213Z,94490.59
2022-09-22T11:43:58.565Z,94491.44
2022-09-22T11:46:30.916Z,94489.78
2022-09-22T11:49:05.957Z,94482.47
2022-09-22T11:51:42.871Z,94483.31
2022-09-22T11:54:16.457Z,94486.81
2022-09-22T11:56:45.019Z,94484.94
2022-09-22T11:59:22.552Z,94480.63
2022-09-22T12:01:50.098Z,94470.59
2022-09-22T12:04:21.553Z,94474.13
2022-09-22T12:06:50.383Z,94469.78
2022-09-22T12:09:26.005Z,94474.13
2022-09-22T12:11:53.577Z,94471.66
2022-09-22T12:14:22.494Z,94461.66
2022-09-22T12:16:51.529Z,94467.88
2022-09-22T12:19:22.930Z,94462.47
2022-09-22T12:21:52.859Z,94469.78
2022-09-22T12:24:20.648Z,94462.47
2022-09-22T12:26:48.951Z,94462.47
2022-09-22T12:29:25.959Z,94462.47
2022-09-22T12:31:55.328Z,94457.06
2022-09-22T12:34:26.883Z,94462.22
2022-09-22T12:36:55.772Z,94455.97
2022-09-22T12:39:24.252Z,94454.91
2022-09-22T12:41:58.123Z,94453.03
2022-09-22T12:44:27.732Z,94455.75
2022-09-22T12:46:58.656Z,94450.34
2022-09-22T12:49:26.335Z,94442.44
2022-09-22T12:51:53.867Z,94449.50
2022-09-22T12:54:39.093Z,94441.66
2022-09-22T12:57:31.307Z,94441.66
2022-09-22T13:00:23.101Z,94438.94
2022-09-22T13:02:51.012Z,94432.47
2022-09-22T13:05:45.537Z,94443.28
2022-09-22T13:08:18.699Z,94443.28
2022-09-22T13:10:56.735Z,94440.81
2022-09-22T13:13:55.201Z,94439.75
2022-09-22T13:16:34.437Z,94437.31
2022-09-22T13:19:02.349Z,94438.94
2022-09-22T13:21:30.837Z,94442.44
2022-09-22T13:23:59.745Z,94444.34
2022-09-22T13:26:28.964Z,94430.00
2022-09-22T13:29:10.196Z,94430.00
2022-09-22T13:31:40.378Z,94438.13
2022-09-22T13:34:27.102Z,94435.41
2022-09-22T13:36:57.077Z,94436.25
2022-09-22T13:39:25.219Z,94438.13
2022-09-22T13:41:55.089Z,94434.34
2022-09-22T13:44:26.094Z,94425.41
2022-09-22T13:46:55.704Z,94430.81
2022-09-22T13:49:28.845Z,94426.50
2022-09-22T13:51:57.729Z,94421.06
2022-09-22T13:54:27.182Z,94424.59
2022-09-22T13:56:55.016Z,94424.59
2022-09-22T13:59:22.563Z,94415.66
2022-09-22T14:01:52.621Z,94406.72
2022-09-22T14:04:26.564Z,94400.47
2022-09-22T14:06:55.288Z,94410.50
2022-09-22T14:09:23.031Z,94413.75
2022-09-22T14:11:50.736Z,94412.97
2022-09-22T14:14:23.040Z,94408.34
2022-09-22T14:16:50.796Z,94412.97
2022-09-22T14:19:20.710Z,94406.72
2022-09-22T14:21:52.387Z,94406.72
2022-09-22T14:24:20.055Z,94407.53
2022-09-22T14:26:47.913Z,94404.00
2022-09-22T14:29:17.626Z,94395.88
2022-09-22T14:31:46.544Z,94402.13
2022-09-22T14:34:17.867Z,94402.13
2022-09-22T14:36:45.628Z,94395.06
2022-09-22T14:39:17.016Z,94401.31
2022-09-22T14:41:51.101Z,94394.00
2022-09-22T14:44:44.237Z,94392.09
2022-09-22T14:47:26.395Z,94393.75
2022-09-22T14:50:11.464Z,94392.94
2022-09-22T14:52:40.816Z,94391.03
2022-09-22T14:55:15.648Z,94394.56
2022-09-22T14:57:45.201Z,94395.38
2022-09-22T15:00:32.701Z,94398.91
2022-09-22T15:03:00.261Z,94401.63
2022-09-22T15:05:30.399Z,94393.22
2022-09-22T15:07:58.197Z,94396.22
2022-09-22T15:10:28.484Z,94398.63
2022-09-22T15:12:56.644Z,94395.69
2022-09-22T15:15:26.121Z,94394.84
2022-09-22T15:18:11.440Z,94392.75
2022-09-22T15:20:42.615Z,94386.50
2022-09-22T15:23:15.764Z,94388.13
2022-09-22T15:25:45.979Z,94383.56
2022-09-22T15:28:14.506Z,94394.63
2022-09-22T15:30:42.484Z,94398.16
2022-09-22T15:33:14.381Z,94394.63
2022-09-22T15:35:42.372Z,94390.28
2022-09-22T15:38:14.962Z,94392.75
2022-09-22T15:40:42.620Z,94387.56
2022-09-22T15:43:13.856Z,94386.50
2022-09-22T15:45:47.462Z,94394.63
2022-09-22T15:48:23.458Z,94394.84
2022-09-22T15:50:51.159Z,94395.94
2022-09-22T15:53:18.734Z,94390.53
2022-09-22T15:55:47.825Z,94395.13
2022-09-22T15:58:18.409Z,94395.13
2022-09-22T16:00:47.233Z,94390.78
2022-09-22T16:03:21.014Z,94395.38
2022-09-22T16:05:50.566Z,94388.31
2022-09-22T16:08:18.346Z,94391.03
2022-09-22T16:10:46.042Z,94392.94
2022-09-22T16:13:14.031Z,94389.41
2022-09-22T16:15:43.159Z,94385.91
2022-09-22T16:18:10.876Z,94385.91
2022-09-22T16:20:38.681Z,94393.75
2022-09-22T16:23:06.644Z,94395.66
2022-09-22T16:25:34.361Z,94385.91
2022-09-22T16:28:02.418Z,94390.47
2022-09-22T16:30:30.293Z,94389.63
2022-09-22T16:32:59.372Z,94387.78
2022-09-22T16:35:26.929Z,94388.84
2022-09-22T16:37:55.781Z,94398.84
2022-09-22T16:40:24.590Z,94393.44
2022-09-22T16:42:52.175Z,94390.72
2022-09-22T16:45:39.980Z,94391.78
2022-09-22T16:48:08.868Z,94391.00
2022-09-22T16:50:37.614Z,94389.09
2022-09-22T16:53:07.133Z,94392.63
2022-09-22T16:55:37.425Z,94386.13
2022-09-22T16:58:07.311Z,94389.16
2022-09-22T17:00:35.019Z,94398.16
2022-09-22T17:03:02.609Z,94389.00
2022-09-22T17:05:32.713Z,94391.50
2022-09-22T17:08:05.924Z,94382.94
2022-09-22T17:10:35.720Z,94392.75
2022-09-22T17:13:04.666Z,94385.25
2022-09-22T17:15:35.629Z,94384.47
2022-09-22T17:18:03.925Z,94388.84
2022-09-22T17:20:32.839Z,94390.53
2022-09-22T17:23:00.479Z,94392.47
2022-09-22T17:25:28.981Z,94391.44
2022-09-22T17:27:57.301Z,94389.06
2022-09-22T17:30:24.901Z,94397.22
2022-09-22T17:32:53.470Z,94391.06
2022-09-22T17:35:21.081Z,94390.53
2022-09-22T17:37:52.132Z,94393.53
2022-09-22T17:40:19.739Z,94397.59
2022-09-22T17:42:48.280Z,94393.31
2022-09-22T17:45:15.968Z,94400.09
2022-09-22T17:48:01.017Z,94402.03
2022-09-22T17:50:46.497Z,94394.19
2022-09-22T17:53:33.144Z,94407.75
2022-09-22T17:56:05.047Z,94412.09
2022-09-22T17:58:38.740Z,94399.63
2022-09-22T18:01:06.321Z,94406.16
2022-09-22T18:03:34.282Z,94402.94
2022-09-22T18:06:03.846Z,94405.13
2022-09-22T18:08:32.763Z,94403.75
2022-09-22T18:11:01.523Z,94412.47
2022-09-22T18:13:29.080Z,94411.41
2022-09-22T18:15:56.680Z,94405.97
2022-09-22T18:18:24.369Z,94405.69
2022-09-22T18:20:52.490Z,94405.44
2022-09-22T18:23:20.069Z,94412.19
2022-09-22T18:25:51.373Z,94405.69
2022-09-22T18:28:22.547Z,94412.75
2022-09-22T18:30:50.226Z,94416.28
2022-09-22T18:33:18.441Z,94417.09
2022-09-22T18:35:47.333Z,94417.94
2022-09-22T18:38:14.999Z,94413.03
2022-09-22T18:40:42.600Z,94409.50
2022-09-22T18:43:11.546Z,94414.66
2022-09-22T18:45:39.439Z,94418.19
2022-09-22T18:48:07.333Z,94411.94
2022-09-22T18:50:35.635Z,94408.16
2022-09-22T18:53:03.250Z,94420.63
2022-09-22T18:55:32.380Z,94415.47
2022-09-22T18:57:59.918Z,94419.25
2022-09-22T19:00:28.818Z,94415.19
2022-09-22T19:02:56.478Z,94422.75
2022-09-22T19:05:24.118Z,94412.72
2022-09-22T19:07:51.962Z,94416.19
2022-09-22T19:10:21.621Z,94418.03
2022-09-22T19:12:49.523Z,94422.38
2022-09-22T19:15:18.621Z,94424.75
2022-09-22T19:17:49.171Z,94420.91
2022-09-22T19:20:18.144Z,94419.81
2022-09-22T19:22:46.759Z,94417.88
2022-09-22T19:25:15.170Z,94419.22
2022-09-22T19:27:42.934Z,94413.72
2022-09-22T19:30:11.235Z,94422.13
2022-09-22T19:32:38.852Z,94409.91
2022-09-22T19:35:08.695Z,94412.03
2022-09-22T19:37:36.467Z,94407.94
2022-09-22T19:40:04.228Z,94406.56
2022-09-22T19:42:31.854Z,94411.19
2022-09-22T19:44:59.432Z,94402.75
2022-09-22T19:47:27.066Z,94404.66
2022-09-22T19:49:54.928Z,94403.03
2022-09-22T19:52:23.816Z,94400.81
2022-09-22T19:54:51.388Z,94403.78
2022-09-22T19:57:18.952Z,94403.22
2022-09-22T19:59:46.484Z,94398.06
2022-09-22T20:02:14.765Z,94401.84
2022-09-22T20:04:42.319Z,94397.75
2022-09-22T20:07:10.738Z,94395.31
2022-09-22T20:09:39.764Z,94389.06
2022-09-22T20:12:07.482Z,94394.72
2022-09-22T20:14:35.003Z,94389.31
2022-09-22T20:17:03.739Z,94391.47
2022-09-22T20:19:32.272Z,94387.13
2022-09-22T20:22:17.712Z,94387.38
2022-09-22T20:24:50.214Z,94384.09
2022-09-22T20:27:17.781Z,94390.88
2022-09-22T20:29:45.308Z,94393.56
2022-09-22T20:32:12.856Z,94387.31
2022-09-22T20:34:40.390Z,94390.31
2022-09-22T20:37:07.936Z,94386.78
2022-09-22T20:39:35.488Z,94387.84
2022-09-22T20:42:04.470Z,94380.78
2022-09-22T20:44:32.089Z,94379.97
2022-09-22T20:47:19.234Z,94382.94
2022-09-22T20:49:51.283Z,94384.03
2022-09-22T20:52:20.753Z,94374.00
2022-09-22T20:54:48.718Z,94376.97
2022-09-22T20:57:17.759Z,94369.91
2022-09-22T20:59:45.516Z,94368.25
2022-09-22T21:02:13.916Z,94373.69
2022-09-22T21:04:41.645Z,94361.50
2022-09-22T21:07:09.369Z,94369.34
2022-09-22T21:09:54.398Z,94366.06
2022-09-22T21:12:30.011Z,94366.06
2022-09-22T21:14:58.839Z,94366.06
2022-09-22T21:17:27.628Z,94360.09
2022-09-22T21:19:57.032Z,94359.84
2022-09-22T21:22:25.071Z,94361.97
2022-09-22T21:24:52.612Z,94354.94
2022-09-22T21:27:20.433Z,94355.75
2022-09-22T21:29:49.397Z,94348.72
2022-09-22T21:32:17.417Z,94348.72
2022-09-22T21:34:44.985Z,94350.59
2022-09-22T21:37:12.517Z,94348.16
2022-09-22T21:39:40.041Z,94350.88
2022-09-22T21:42:07.617Z,94354.66
2022-09-22T21:44:35.163Z,94347.59
2022-09-22T21:47:04.775Z,94346.78
2022-09-22T21:49:32.895Z,94349.47
2022-09-22T21:52:01.195Z,94349.22
2022-09-22T21:54:28.779Z,94345.94
2022-09-22T21:56:56.602Z,94345.13
2022-09-22T21:59:24.232Z,94340.53
2022-09-22T22:01:51.883Z,94339.97
2022-09-22T22:04:20.954Z,94341.03
2022-09-22T22:06:48.546Z,94336.47
2022-09-22T22:09:17.105Z,94333.75
2022-09-22T22:11:49.033Z,94335.63
2022-09-22T22:14:17.336Z,94334.84
2022-09-22T22:16:45.633Z,94339.41
2022-09-22T22:19:13.972Z,94335.06
2022-09-22T22:21:43.008Z,94335.06
2022-09-22T22:24:34.343Z,94331.56
2022-09-22T22:27:04.709Z,94326.16
2022-09-22T22:29:34.142Z,94324.50
2022-09-22T22:32:02.029Z,94332.63
2022-09-22T22:34:29.596Z,94330.19
2022-09-22T22:36:59.053Z,94332.63
2022-09-22T22:39:26.569Z,94330.97
2022-09-22T22:41:55.496Z,94327.47
2022-09-22T22:44:23.122Z,94327.47
2022-09-22T22:46:50.720Z,94326.63
2022-09-22T22:49:18.295Z,94327.47
2022-09-22T22:51:45.882Z,94320.44
2022-09-22T22:54:14.814Z,94317.72
2022-09-22T22:56:44.365Z,94320.44
2022-09-22T22:59:14.833Z,94323.13
2022-09-22T23:01:44.112Z,94316.88
2022-09-22T23:04:11.986Z,94312.56
2022-09-22T23:06:43.068Z,94313.38
2022-09-22T23:09:12.183Z,94312.56
2022-09-22T23:11:41.144Z,94317.16
2022-09-22T23:14:11.294Z,94313.63
2022-09-22T23:16:40.521Z,94314.47
2022-09-22T23:19:09.221Z,94317.16
2022-09-22T23:21:37.131Z,94309.03
2022-09-22T23:24:04.957Z,94308.47
2022-09-22T23:26:32.534Z,94312.00
2022-09-22T23:29:03.806Z,94313.88
2022-09-22T23:31:31.506Z,94307.41
2022-09-22T23:33:59.140Z,94308.47
2022-09-22T23:36:27.457Z,94306.81
2022-09-22T23:38:55.160Z,94313.06
2022-09-22T23:41:22.794Z,94306.81
2022-09-22T23:43:50.564Z,94306.81
2022-09-22T23:46:21.117Z,94307.66
2022-09-22T23:48:48.793Z,94311.16
2022-09-22T23:51:16.444Z,94302.50
2022-09-22T23:53:44.013Z,94298.72
2022-09-22T23:56:11.589Z,94295.19
2022-09-22T23:58:39.116Z,94302.50
